createdAt,value
2018-08-24T00:01:32.894Z,62.10
2018-08-24T00:04:05.532Z,62.80
2018-08-24T00:06:34.108Z,63.60
2018-08-24T00:09:02.507Z,64.10
2018-08-24T00:11:30.974Z,64.70
2018-08-24T00:13:59.394Z,65.00
2018-08-24T00:16:33.295Z,65.40
2018-08-24T00:19:02.017Z,65.90
2018-08-24T00:21:30.386Z,66.50
2018-08-24T00:23:58.762Z,66.60
2018-08-24T00:26:27.113Z,67.00
2018-08-24T00:28:55.494Z,67.30
2018-08-24T00:31:23.824Z,67.50
2018-08-24T00:33:53.522Z,67.60
2018-08-24T00:36:24.203Z,68.10
2018-08-24T00:38:52.677Z,68.50
2018-08-24T00:41:21.002Z,69.00
2018-08-24T00:43:49.655Z,69.40
2018-08-24T00:46:18.126Z,69.20
2018-08-24T00:48:47.091Z,69.10
2018-08-24T00:51:15.462Z,69.20
2018-08-24T00:53:43.944Z,69.10
2018-08-24T00:56:12.778Z,68.70
2018-08-24T00:58:41.201Z,67.80
2018-08-24T01:01:10.139Z,67.60
2018-08-24T01:03:39.122Z,67.10
2018-08-24T01:06:07.581Z,67.30
2018-08-24T01:08:36.430Z,67.40
2018-08-24T01:11:04.918Z,67.20
2018-08-24T01:13:33.478Z,67.40
2018-08-24T01:16:02.778Z,67.30
2018-08-24T01:18:36.709Z,66.80
2018-08-24T01:21:05.162Z,66.70
2018-08-24T01:23:34.594Z,67.00
2018-08-24T01:26:03.036Z,67.60
2018-08-24T01:28:31.939Z,67.10
2018-08-24T01:31:05.064Z,67.40
2018-08-24T01:33:33.732Z,67.90
2018-08-24T01:36:02.409Z,68.10
2018-08-24T01:38:30.812Z,68.00
2018-08-24T01:40:59.288Z,67.80
2018-08-24T01:43:27.670Z,68.10
2018-08-24T01:46:01.333Z,68.00
2018-08-24T01:48:29.714Z,67.80
2018-08-24T01:50:58.104Z,67.60
2018-08-24T01:53:26.856Z,67.20
2018-08-24T01:55:55.222Z,66.40
2018-08-24T01:58:23.729Z,65.40
2018-08-24T02:00:52.180Z,65.20
2018-08-24T02:03:20.531Z,65.80
2018-08-24T02:05:48.986Z,66.70
2018-08-24T02:08:17.412Z,64.70
2018-08-24T02:10:45.829Z,64.50
2018-08-24T02:13:19.655Z,64.00
2018-08-24T02:15:48.129Z,63.80
2018-08-24T02:18:22.042Z,63.30
2018-08-24T02:20:55.682Z,63.80
2018-08-24T02:23:24.140Z,63.20
2018-08-24T02:25:52.514Z,63.00
2018-08-24T02:28:20.943Z,62.20
2018-08-24T02:30:49.306Z,62.80
2018-08-24T02:33:17.702Z,62.10
2018-08-24T02:35:46.300Z,62.40
2018-08-24T02:38:14.763Z,62.70
2018-08-24T02:40:43.175Z,62.50
2018-08-24T02:43:11.650Z,62.20
2018-08-24T02:45:40.216Z,62.00
2018-08-24T02:48:08.608Z,62.70
2018-08-24T02:50:36.972Z,62.10
2018-08-24T02:53:05.468Z,61.90
2018-08-24T02:55:34.288Z,61.60
2018-08-24T02:58:02.742Z,61.30
2018-08-24T03:00:31.189Z,61.00
2018-08-24T03:02:59.591Z,60.80
2018-08-24T03:05:28.169Z,61.10
2018-08-24T03:07:56.519Z,61.30
2018-08-24T03:10:24.939Z,61.70
2018-08-24T03:12:53.284Z,61.80
2018-08-24T03:15:21.652Z,62.10
2018-08-24T03:17:54.916Z,61.90
2018-08-24T03:20:24.535Z,62.30
2018-08-24T03:22:53.110Z,62.70
2018-08-24T03:25:21.603Z,62.70
2018-08-24T03:27:49.956Z,62.30
2018-08-24T03:30:18.307Z,62.50
2018-08-24T03:32:46.672Z,62.10
2018-08-24T03:35:15.117Z,62.80
2018-08-24T03:37:43.498Z,62.10
2018-08-24T03:40:12.116Z,61.80
2018-08-24T03:42:40.479Z,61.80
2018-08-24T03:45:08.900Z,61.80
2018-08-24T03:47:37.239Z,62.30
2018-08-24T03:50:05.687Z,62.50
2018-08-24T03:52:34.075Z,62.70
2018-08-24T03:55:02.464Z,63.00
2018-08-24T03:57:30.943Z,63.30
2018-08-24T03:59:59.388Z,63.50
2018-08-24T04:02:27.763Z,63.60
2018-08-24T04:04:56.151Z,63.90
2018-08-24T04:07:25.271Z,64.20
2018-08-24T04:09:53.689Z,64.60
2018-08-24T04:12:22.051Z,64.80
2018-08-24T04:14:50.403Z,64.90
2018-08-24T04:17:24.048Z,64.80
2018-08-24T04:19:52.520Z,65.00
2018-08-24T04:22:20.915Z,65.30
2018-08-24T04:24:49.322Z,65.30
2018-08-24T04:27:17.704Z,65.60
2018-08-24T04:29:46.386Z,66.20
2018-08-24T04:32:14.812Z,66.10
2018-08-24T04:34:43.500Z,66.50
2018-08-24T04:37:11.912Z,66.90
2018-08-24T04:39:40.352Z,67.30
2018-08-24T04:42:08.855Z,67.90
2018-08-24T04:44:37.344Z,68.50
2018-08-24T04:47:05.748Z,69.00
2018-08-24T04:49:34.147Z,69.50
2018-08-24T04:52:02.600Z,69.50
2018-08-24T04:54:31.149Z,69.90
2018-08-24T04:56:59.539Z,70.00
2018-08-24T04:59:27.968Z,70.20
2018-08-24T05:01:56.354Z,70.40
2018-08-24T05:04:24.827Z,70.40
2018-08-24T05:06:53.250Z,70.50
2018-08-24T05:09:21.754Z,70.60
2018-08-24T05:11:50.085Z,70.60
2018-08-24T05:14:18.517Z,70.70
2018-08-24T05:16:46.840Z,71.10
2018-08-24T05:19:15.412Z,71.20
2018-08-24T05:21:43.791Z,71.10
2018-08-24T05:24:12.212Z,70.90
2018-08-24T05:26:40.627Z,70.70
2018-08-24T05:29:09.102Z,71.00
2018-08-24T05:31:37.473Z,70.80
2018-08-24T05:34:06.057Z,70.80
2018-08-24T05:36:34.418Z,71.00
2018-08-24T05:39:03.045Z,71.20
2018-08-24T05:41:31.485Z,71.30
2018-08-24T05:43:59.982Z,71.50
2018-08-24T05:46:28.458Z,71.70
2018-08-24T05:52:28.700Z,71.40
2018-08-24T05:54:57.040Z,71.40
2018-08-24T05:57:25.458Z,71.70
2018-08-24T05:59:53.872Z,71.30
2018-08-24T06:02:22.655Z,71.30
2018-08-24T06:04:51.000Z,71.60
2018-08-24T06:07:20.154Z,71.80
2018-08-24T06:09:48.592Z,71.90
2018-08-24T06:12:17.140Z,71.90
2018-08-24T06:14:45.559Z,71.80
2018-08-24T06:17:19.326Z,71.60
2018-08-24T06:19:47.722Z,71.50
2018-08-24T06:22:16.241Z,71.60
2018-08-24T06:24:45.204Z,71.50
2018-08-24T06:27:14.239Z,71.60
2018-08-24T06:29:42.595Z,71.80
2018-08-24T06:32:11.190Z,71.80
2018-08-24T06:34:39.606Z,71.80
2018-08-24T06:37:08.063Z,71.70
2018-08-24T06:39:36.503Z,71.80
2018-08-24T06:42:05.359Z,72.00
2018-08-24T06:44:34.165Z,72.20
2018-08-24T06:47:02.618Z,72.30
2018-08-24T06:49:31.100Z,72.60
2018-08-24T06:51:59.607Z,72.50
2018-08-24T06:54:28.011Z,72.60
2018-08-24T06:56:56.415Z,72.70
2018-08-24T06:59:24.782Z,72.80
2018-08-24T07:01:53.255Z,72.50
2018-08-24T07:04:21.639Z,72.50
2018-08-24T07:06:50.081Z,72.20
2018-08-24T07:09:18.458Z,72.00
2018-08-24T07:11:47.041Z,72.20
2018-08-24T07:14:15.436Z,72.00
2018-08-24T07:16:43.869Z,71.90
2018-08-24T07:19:12.516Z,72.10
2018-08-24T07:21:41.207Z,72.10
2018-08-24T07:24:09.627Z,72.20
2018-08-24T07:26:38.231Z,72.10
2018-08-24T07:29:06.597Z,71.80
2018-08-24T07:31:35.058Z,72.00
2018-08-24T07:34:03.476Z,71.70
2018-08-24T07:36:31.971Z,71.40
2018-08-24T07:39:00.500Z,70.60
2018-08-24T07:41:29.233Z,71.00
2018-08-24T07:43:57.671Z,70.90
2018-08-24T07:46:26.190Z,70.90
2018-08-24T07:48:54.603Z,71.00
2018-08-24T07:51:23.190Z,71.30
2018-08-24T07:53:51.551Z,70.80
2018-08-24T07:56:19.946Z,70.80
2018-08-24T07:58:48.343Z,70.80
2018-08-24T08:01:16.821Z,70.50
2018-08-24T08:03:45.224Z,69.70
2018-08-24T08:06:13.720Z,70.30
2018-08-24T08:08:42.128Z,69.80
2018-08-24T08:11:10.565Z,70.00
2018-08-24T08:13:39.836Z,70.00
2018-08-24T08:16:08.452Z,70.40
2018-08-24T08:18:36.839Z,70.80
2018-08-24T08:21:05.253Z,71.30
2018-08-24T08:23:33.632Z,70.20
2018-08-24T08:26:02.216Z,69.70
2018-08-24T08:28:30.567Z,69.40
2018-08-24T08:30:59.545Z,70.00
2018-08-24T08:33:27.975Z,69.10
2018-08-24T08:35:56.384Z,68.70
2018-08-24T08:38:24.831Z,67.30
2018-08-24T08:40:53.346Z,67.50
2018-08-24T08:43:21.783Z,67.90
2018-08-24T08:45:50.221Z,67.90
2018-08-24T08:48:18.635Z,67.40
2018-08-24T08:50:47.133Z,64.20
2018-08-24T08:53:15.664Z,62.30
2018-08-24T08:55:44.122Z,61.70
2018-08-24T08:58:12.583Z,62.60
2018-08-24T09:00:41.076Z,61.40
2018-08-24T09:03:09.486Z,62.70
2018-08-24T09:05:37.942Z,62.10
2018-08-24T09:08:06.296Z,59.90
2018-08-24T09:10:34.876Z,60.10
2018-08-24T09:13:03.216Z,60.50
2018-08-24T09:15:31.803Z,59.80
2018-08-24T09:18:05.554Z,59.40
2018-08-24T09:20:39.420Z,59.20
2018-08-24T09:23:13.134Z,58.10
2018-08-24T09:25:46.969Z,57.00
2018-08-24T09:28:18.423Z,57.60
2018-08-24T09:30:52.684Z,57.00
2018-08-24T09:33:21.151Z,57.20
2018-08-24T09:35:49.535Z,56.70
2018-08-24T09:38:17.907Z,56.60
2018-08-24T09:40:51.565Z,55.90
2018-08-24T09:43:25.344Z,55.90
2018-08-24T09:45:53.698Z,55.40
2018-08-24T09:48:28.111Z,55.20
2018-08-24T09:51:01.981Z,55.10
2018-08-24T09:53:35.666Z,54.90
2018-08-24T09:56:04.175Z,52.30
2018-08-24T09:58:32.583Z,52.10
2018-08-24T10:01:08.475Z,50.60
2018-08-24T10:03:42.294Z,48.20
2018-08-24T10:06:16.086Z,49.00
2018-08-24T10:08:49.560Z,48.60
2018-08-24T10:11:18.330Z,48.40
2018-08-24T10:13:46.913Z,48.00
2018-08-24T10:16:16.479Z,48.10
2018-08-24T10:18:45.193Z,47.40
2018-08-24T10:21:13.615Z,47.90
2018-08-24T10:23:42.012Z,47.60
2018-08-24T10:26:10.544Z,47.30
2018-08-24T10:28:38.919Z,47.50
2018-08-24T10:31:07.424Z,46.80
2018-08-24T10:33:35.784Z,44.90
2018-08-24T10:36:04.313Z,44.30
2018-08-24T10:38:32.790Z,44.80
2018-08-24T10:41:01.267Z,44.80
2018-08-24T10:43:29.580Z,45.10
2018-08-24T10:45:58.051Z,45.30
2018-08-24T10:48:26.467Z,45.10
2018-08-24T10:50:54.908Z,45.30
2018-08-24T10:53:23.274Z,45.10
2018-08-24T10:55:51.730Z,44.70
2018-08-24T10:58:20.119Z,43.20
2018-08-24T11:00:48.710Z,42.40
2018-08-24T11:03:17.700Z,42.10
2018-08-24T11:05:46.118Z,42.70
2018-08-24T11:08:14.470Z,40.10
2018-08-24T11:10:42.924Z,40.30
2018-08-24T11:13:11.374Z,37.80
2018-08-24T11:15:39.892Z,38.70
2018-08-24T11:18:09.393Z,40.00
2018-08-24T11:20:39.420Z,40.10
2018-08-24T11:23:07.937Z,39.70
2018-08-24T11:25:36.326Z,39.90
2018-08-24T11:28:04.679Z,40.40
2018-08-24T11:30:33.324Z,39.00
2018-08-24T11:33:01.695Z,38.60
2018-08-24T11:35:30.251Z,36.90
2018-08-24T11:37:58.650Z,36.70
2018-08-24T11:40:27.142Z,36.00
2018-08-24T11:42:55.643Z,36.10
2018-08-24T11:45:24.157Z,36.20
2018-08-24T11:47:52.578Z,35.70
2018-08-24T11:50:20.973Z,35.90
2018-08-24T11:52:49.338Z,34.30
2018-08-24T11:55:17.837Z,34.90
2018-08-24T11:57:46.225Z,35.20
2018-08-24T12:00:15.195Z,35.60
2018-08-24T12:02:43.550Z,35.60
2018-08-24T12:05:12.019Z,36.40
2018-08-24T12:07:40.829Z,36.50
2018-08-24T12:10:09.488Z,35.80
2018-08-24T12:12:37.947Z,35.00
2018-08-24T12:15:06.819Z,35.80
2018-08-24T12:17:36.929Z,37.20
2018-08-24T12:20:06.095Z,35.50
2018-08-24T12:22:34.453Z,35.90
2018-08-24T12:25:03.058Z,34.70
2018-08-24T12:27:31.515Z,34.40
2018-08-24T12:30:00.010Z,33.90
2018-08-24T12:32:28.368Z,34.90
2018-08-24T12:34:56.860Z,33.80
2018-08-24T12:37:25.234Z,33.90
2018-08-24T12:39:53.651Z,32.70
2018-08-24T12:42:22.075Z,33.30
2018-08-24T12:44:50.538Z,33.60
2018-08-24T12:47:19.057Z,34.20
2018-08-24T12:49:47.432Z,34.60
2018-08-24T12:52:15.957Z,34.80
2018-08-24T12:54:44.338Z,34.80
2018-08-24T12:57:12.804Z,34.70
2018-08-24T12:59:41.198Z,33.20
2018-08-24T13:02:09.730Z,33.20
2018-08-24T13:04:38.082Z,32.50
2018-08-24T13:07:06.588Z,33.20
2018-08-24T13:09:34.939Z,33.60
2018-08-24T13:12:03.322Z,34.40
2018-08-24T13:14:31.763Z,35.20
2018-08-24T13:17:00.239Z,34.90
2018-08-24T13:19:28.640Z,35.10
2018-08-24T13:21:57.007Z,35.20
2018-08-24T13:24:25.414Z,32.80
2018-08-24T13:26:53.841Z,32.20
2018-08-24T13:29:22.381Z,31.70
2018-08-24T13:31:50.779Z,31.50
2018-08-24T13:34:19.188Z,31.60
2018-08-24T13:36:47.584Z,32.10
2018-08-24T13:39:16.143Z,33.20
2018-08-24T13:41:44.560Z,31.80
2018-08-24T13:44:13.081Z,32.10
2018-08-24T13:46:41.457Z,33.10
2018-08-24T13:49:09.928Z,33.10
2018-08-24T13:51:38.275Z,34.00
2018-08-24T13:54:06.788Z,33.60
2018-08-24T13:56:35.139Z,34.30
2018-08-24T13:59:03.693Z,33.70
2018-08-24T14:01:32.107Z,33.60
2018-08-24T14:04:00.702Z,32.70
2018-08-24T14:06:29.084Z,31.90
2018-08-24T14:08:57.582Z,31.30
2018-08-24T14:11:25.966Z,31.60
2018-08-24T14:13:54.458Z,32.30
2018-08-24T14:16:23.020Z,31.00
2018-08-24T14:18:51.725Z,30.00
2018-08-24T14:21:20.188Z,30.40
2018-08-24T14:23:48.667Z,30.40
2018-08-24T14:26:17.048Z,31.60
2018-08-24T14:28:45.519Z,32.20
2018-08-24T14:31:13.888Z,32.90
2018-08-24T14:33:42.431Z,34.30
2018-08-24T14:36:10.871Z,35.40
2018-08-24T14:38:39.406Z,35.30
2018-08-24T14:41:07.751Z,35.70
2018-08-24T14:43:36.283Z,35.80
2018-08-24T14:46:04.685Z,36.10
2018-08-24T14:48:33.165Z,35.60
2018-08-24T14:51:01.483Z,35.10
2018-08-24T14:53:29.949Z,35.70
2018-08-24T14:55:58.501Z,36.00
2018-08-24T14:58:26.956Z,36.10
2018-08-24T15:00:55.319Z,36.20
2018-08-24T15:03:23.798Z,35.50
2018-08-24T15:05:52.193Z,35.70
2018-08-24T15:08:20.647Z,35.70
2018-08-24T15:10:48.993Z,35.50
2018-08-24T15:13:17.512Z,36.30
2018-08-24T15:15:45.889Z,36.90
2018-08-24T15:18:14.323Z,36.90
2018-08-24T15:20:42.772Z,37.30
2018-08-24T15:23:11.367Z,38.20
2018-08-24T15:25:39.757Z,38.10
2018-08-24T15:28:08.159Z,38.30
2018-08-24T15:30:36.526Z,38.70
2018-08-24T15:33:05.276Z,37.60
2018-08-24T15:35:33.683Z,35.80
2018-08-24T15:38:02.237Z,35.70
2018-08-24T15:40:30.696Z,36.40
2018-08-24T15:42:59.230Z,36.30
2018-08-24T15:45:29.687Z,35.40
2018-08-24T15:47:58.232Z,35.40
2018-08-24T15:50:26.626Z,34.80
2018-08-24T15:52:55.269Z,34.90
2018-08-24T15:55:23.732Z,35.20
2018-08-24T15:57:52.104Z,35.20
2018-08-24T16:00:20.475Z,34.70
2018-08-24T16:02:48.876Z,34.80
2018-08-24T16:05:17.318Z,35.10
2018-08-24T16:07:45.842Z,35.10
2018-08-24T16:10:14.247Z,35.60
2018-08-24T16:12:42.732Z,36.20
2018-08-24T16:15:11.210Z,36.30
2018-08-24T16:17:39.833Z,36.30
2018-08-24T16:20:08.313Z,36.60
2018-08-24T16:22:36.800Z,37.00
2018-08-24T16:25:05.272Z,37.40
2018-08-24T16:27:34.378Z,36.90
2018-08-24T16:30:02.771Z,37.00
2018-08-24T16:32:31.249Z,37.40
2018-08-24T16:34:59.606Z,37.90
2018-08-24T16:37:28.094Z,38.20
2018-08-24T16:39:56.455Z,39.10
2018-08-24T16:42:24.907Z,38.70
2018-08-24T16:44:53.513Z,38.90
2018-08-24T16:47:21.911Z,39.40
2018-08-24T16:49:50.306Z,39.30
2018-08-24T16:52:18.705Z,39.50
2018-08-24T16:54:47.177Z,39.50
2018-08-24T16:57:15.698Z,39.90
2018-08-24T16:59:44.075Z,40.30
2018-08-24T17:02:12.527Z,40.50
2018-08-24T17:04:40.891Z,40.80
2018-08-24T17:07:09.389Z,40.60
2018-08-24T17:09:37.814Z,40.50
2018-08-24T17:12:06.361Z,39.90
2018-08-24T17:14:34.859Z,39.90
2018-08-24T17:17:03.278Z,39.30
2018-08-24T17:19:31.700Z,38.60
2018-08-24T17:22:00.302Z,38.40
2018-08-24T17:24:28.764Z,38.00
2018-08-24T17:26:57.312Z,38.30
2018-08-24T17:29:25.649Z,38.40
2018-08-24T17:31:54.280Z,38.40
2018-08-24T17:34:22.670Z,38.60
2018-08-24T17:36:51.191Z,38.80
2018-08-24T17:39:19.646Z,39.00
2018-08-24T17:41:48.209Z,39.20
2018-08-24T17:44:16.561Z,39.20
2018-08-24T17:46:45.082Z,39.60
2018-08-24T17:49:13.455Z,39.30
2018-08-24T17:51:41.916Z,39.30
2018-08-24T17:54:10.374Z,39.50
2018-08-24T17:56:38.956Z,40.00
2018-08-24T17:59:07.371Z,40.00
2018-08-24T18:01:36.057Z,40.20
2018-08-24T18:04:04.765Z,39.60
2018-08-24T18:06:33.232Z,39.40
2018-08-24T18:09:01.933Z,39.50
2018-08-24T18:11:30.749Z,39.30
2018-08-24T18:13:59.145Z,39.40
2018-08-24T18:16:27.636Z,39.60
2018-08-24T18:18:56.048Z,39.80
2018-08-24T18:21:24.601Z,40.30
2018-08-24T18:23:53.055Z,39.80
2018-08-24T18:26:21.512Z,39.90
2018-08-24T18:28:50.013Z,40.50
2018-08-24T18:31:18.557Z,40.30
2018-08-24T18:33:47.121Z,40.10
2018-08-24T18:36:15.571Z,40.20
2018-08-24T18:38:43.979Z,40.20
2018-08-24T18:41:12.583Z,40.10
2018-08-24T18:43:40.991Z,40.40
2018-08-24T18:46:09.903Z,40.10
2018-08-24T18:48:38.385Z,39.70
2018-08-24T18:51:06.819Z,39.60
2018-08-24T18:53:35.204Z,39.60
2018-08-24T18:56:03.820Z,39.90
2018-08-24T18:58:32.273Z,40.40
2018-08-24T19:01:01.080Z,39.90
2018-08-24T19:03:29.518Z,40.00
2018-08-24T19:05:57.932Z,40.10
2018-08-24T19:08:26.340Z,40.50
2018-08-24T19:11:00.006Z,40.50
2018-08-24T19:13:28.484Z,40.40
2018-08-24T19:15:56.854Z,40.10
2018-08-24T19:18:30.732Z,40.20
2018-08-24T19:21:04.481Z,40.20
2018-08-24T19:23:32.929Z,40.40
2018-08-24T19:26:01.427Z,40.30
2018-08-24T19:28:35.282Z,40.50
2018-08-24T19:31:05.213Z,40.60
2018-08-24T19:33:33.599Z,40.60
2018-08-24T19:36:02.072Z,40.70
2018-08-24T19:38:30.464Z,40.70
2018-08-24T19:42:04.105Z,40.70
2018-08-24T19:44:32.563Z,40.90
2018-08-24T19:47:01.091Z,41.10
2018-08-24T19:49:29.517Z,41.30
2018-08-24T19:51:57.918Z,41.40
2018-08-24T19:54:26.307Z,41.50
2018-08-24T19:56:54.787Z,41.40
2018-08-24T19:59:23.190Z,41.20
2018-08-24T20:01:51.723Z,41.10
2018-08-24T20:04:20.055Z,41.20
2018-08-24T20:06:53.742Z,41.20
2018-08-24T20:09:27.500Z,41.40
2018-08-24T20:11:55.934Z,41.10
2018-08-24T20:14:29.903Z,41.20
2018-08-24T20:17:03.518Z,41.40
2018-08-24T20:19:31.924Z,41.50
2018-08-24T20:22:00.482Z,41.10
2018-08-24T20:24:29.048Z,41.20
2018-08-24T20:26:57.376Z,41.40
2018-08-24T20:29:25.718Z,41.30
2018-08-24T20:31:54.200Z,41.50
2018-08-24T20:34:22.624Z,41.50
2018-08-24T20:36:51.630Z,41.70
2018-08-24T20:39:20.011Z,41.90
2018-08-24T20:41:48.463Z,42.00
2018-08-24T20:44:16.888Z,42.20
2018-08-24T20:46:45.391Z,42.10
2018-08-24T20:49:13.735Z,42.20
2018-08-24T20:51:42.260Z,42.20
2018-08-24T20:54:10.931Z,42.40
2018-08-24T20:56:39.420Z,42.30
2018-08-24T20:59:07.737Z,42.40
2018-08-24T21:01:36.239Z,42.50
2018-08-24T21:04:04.783Z,42.60
2018-08-24T21:06:33.263Z,42.70
2018-08-24T21:09:01.706Z,42.70
2018-08-24T21:11:30.218Z,42.90
2018-08-24T21:13:58.612Z,43.00
2018-08-24T21:16:27.138Z,43.20
2018-08-24T21:18:55.515Z,43.30
2018-08-24T21:21:23.995Z,42.90
2018-08-24T21:23:52.476Z,43.00
2018-08-24T21:26:20.907Z,43.00
2018-08-24T21:28:49.275Z,43.10
2018-08-24T21:31:17.818Z,43.40
2018-08-24T21:33:46.297Z,43.40
2018-08-24T21:36:14.759Z,43.70
2018-08-24T21:38:43.695Z,43.70
2018-08-24T21:41:12.294Z,43.90
2018-08-24T21:43:40.843Z,43.70
2018-08-24T21:46:09.351Z,44.10
2018-08-24T21:48:37.830Z,44.10
2018-08-24T21:51:06.389Z,44.30
2018-08-24T21:53:34.804Z,44.50
2018-08-24T21:56:03.223Z,44.50
2018-08-24T21:58:31.700Z,44.50
2018-08-24T22:01:00.181Z,44.50
2018-08-24T22:03:28.542Z,44.50
2018-08-24T22:05:57.052Z,44.30
2018-08-24T22:08:25.452Z,44.60
2018-08-24T22:10:53.923Z,44.60
2018-08-24T22:13:22.311Z,44.40
2018-08-24T22:15:50.703Z,44.50
2018-08-24T22:18:19.234Z,44.70
2018-08-24T22:20:47.717Z,44.60
2018-08-24T22:23:16.100Z,44.80
2018-08-24T22:25:44.714Z,44.80
2018-08-24T22:28:13.223Z,45.00
2018-08-24T22:30:41.637Z,45.10
2018-08-24T22:33:10.031Z,45.20
2018-08-24T22:35:39.465Z,45.10
2018-08-24T22:38:07.559Z,45.20
2018-08-24T22:40:35.985Z,45.00
2018-08-24T22:43:04.465Z,45.10
2018-08-24T22:45:32.935Z,45.00
2018-08-24T22:48:01.299Z,45.10
2018-08-24T22:50:29.719Z,45.20
2018-08-24T22:52:58.114Z,45.40
2018-08-24T22:55:26.550Z,45.10
2018-08-24T22:57:54.884Z,45.20
2018-08-24T23:00:23.335Z,45.20
2018-08-24T23:02:51.749Z,45.20
2018-08-24T23:05:20.143Z,45.50
2018-08-24T23:07:48.542Z,45.10
2018-08-24T23:10:17.056Z,45.20
2018-08-24T23:12:45.416Z,45.00
2018-08-24T23:15:13.884Z,45.20
2018-08-24T23:17:42.382Z,45.20
2018-08-24T23:20:10.939Z,45.20
2018-08-24T23:22:39.317Z,45.00
2018-08-24T23:25:07.901Z,45.20
2018-08-24T23:27:36.650Z,45.30
2018-08-24T23:30:05.176Z,45.40
2018-08-24T23:32:33.614Z,45.50
2018-08-24T23:35:02.131Z,45.80
2018-08-24T23:37:31.325Z,46.00
2018-08-24T23:39:59.938Z,45.80
2018-08-24T23:42:28.328Z,46.00
2018-08-24T23:44:57.884Z,46.10
2018-08-24T23:47:26.283Z,45.80
2018-08-24T23:49:54.855Z,45.50
2018-08-24T23:52:23.261Z,45.50
2018-08-24T23:54:51.731Z,45.80
2018-08-24T23:57:20.065Z,45.50
2018-08-24T23:59:48.626Z,45.70
